Time;durP1;ratioP1;P1;durP2;ratioP2;P2;SDS_P1;SDS_P2;PMS_P1;PMS_P2;Temp;Humidity;BMP_temperature;BMP_pressure;BME280_temperature;BME280_humidity;BME280_pressure;Samples;Min_cycle;Max_cycle;Signal;HPM_P1;HPM_P2
2024/01/07 00:01:34;;;;;;;0.10;0.10;;;;;;;;;;5059484;28;20053;-78
2024/01/07 00:04:20;;;;;;;0.10;0.10;;;;;;;;;;5053358;28;20053;-78
2024/01/07 00:06:49;;;;;;;0.10;0.10;;;;;;;;;;5053612;28;20040;-78
2024/01/07 00:09:23;;;;;;;0.10;0.10;;;;;;;;;;5058706;28;20124;-78
2024/01/07 00:11:55;;;;;;;1.85;1.75;;;;;;;;;;5056727;28;20100;-78
2024/01/07 00:14:27;;;;;;;0.10;0.10;;;;;;;;;;5071401;28;20053;-78
2024/01/07 00:16:54;;;;;;;4.47;3.40;;;;;;;;;;5061627;28;20057;-78
2024/01/07 00:19:26;;;;;;;0.10;0.10;;;;;;;;;;5054049;28;20049;-78
2024/01/07 00:21:53;;;;;;;0.10;0.10;;;;;;;;;;5056101;28;20057;-78
2024/01/07 00:24:25;;;;;;;0.10;0.10;;;;;;;;;;5058219;28;20085;-78
2024/01/07 00:26:58;;;;;;;0.15;0.15;;;;;;;;;;5053459;28;20553;-78
2024/01/07 00:29:28;;;;;;;2.37;2.27;;;;;;;;;;5055384;28;20089;-78
2024/01/07 00:31:55;;;;;;;0.13;0.13;;;;;;;;;;5057808;28;20189;-78
2024/01/07 00:34:27;;;;;;;0.10;0.10;;;;;;;;;;5061466;28;20038;-78
2024/01/07 00:37:08;;;;;;;0.10;0.10;;;;;;;;;;5061823;28;20096;-78
2024/01/07 00:39:57;;;;;;;0.10;0.10;;;;;;;;;;5056782;28;20057;-78
2024/01/07 00:42:27;;;;;;;0.10;0.10;;;;;;;;;;5017686;28;20145;-78
2024/01/07 00:44:57;;;;;;;0.10;0.10;;;;;;;;;;5068042;28;20053;-78
2024/01/07 00:47:42;;;;;;;0.10;0.10;;;;;;;;;;5059991;28;20049;-78
2024/01/07 00:50:12;;;;;;;0.32;0.32;;;;;;;;;;5066951;28;20140;-78
2024/01/07 00:52:43;;;;;;;0.32;0.32;;;;;;;;;;5057796;28;20503;-78
2024/01/07 00:55:12;;;;;;;0.15;0.15;;;;;;;;;;5069831;28;20147;-78
2024/01/07 00:57:48;;;;;;;0.10;0.10;;;;;;;;;;5061818;28;20057;-78
2024/01/07 01:00:24;;;;;;;2.67;2.47;;;;;;;;;;5069422;28;20049;-78
2024/01/07 01:02:59;;;;;;;0.10;0.10;;;;;;;;;;5062080;28;20931;-78
2024/01/07 01:05:32;;;;;;;0.10;0.10;;;;;;;;;;5068910;28;20053;-78
2024/01/07 01:08:23;;;;;;;0.80;0.80;;;;;;;;;;5056688;28;20053;-78
2024/01/07 01:10:53;;;;;;;0.10;0.10;;;;;;;;;;5061302;28;20057;-78
2024/01/07 01:13:23;;;;;;;0.17;0.17;;;;;;;;;;5059012;28;20057;-78
2024/01/07 01:15:52;;;;;;;0.13;0.13;;;;;;;;;;5056701;28;20080;-78
2024/01/07 01:18:22;;;;;;;0.10;0.10;;;;;;;;;;5055480;28;20053;-78
2024/01/07 01:20:53;;;;;;;0.10;0.10;;;;;;;;;;5057900;28;20130;-78
2024/01/07 01:23:20;;;;;;;0.10;0.10;;;;;;;;;;5062774;28;20061;-78
2024/01/07 01:25:55;;;;;;;0.10;0.10;;;;;;;;;;5060639;28;20681;-78
2024/01/07 01:28:29;;;;;;;0.10;0.10;;;;;;;;;;5127812;23;20054;-83
2024/01/07 01:30:55;;;;;;;0.10;0.10;;;;;;;;;;5079927;28;20096;-84
2024/01/07 01:33:22;;;;;;;0.20;0.20;;;;;;;;;;5072747;28;20514;-82
2024/01/07 01:35:49;;;;;;;0.17;0.17;;;;;;;;;;5076282;28;20057;-83
2024/01/07 01:38:16;;;;;;;0.10;0.10;;;;;;;;;;5072863;28;20123;-83
2024/01/07 01:40:43;;;;;;;0.10;0.10;;;;;;;;;;5062523;28;20053;-83
2024/01/07 01:43:09;;;;;;;0.47;0.47;;;;;;;;;;5067491;28;20510;-83
2024/01/07 01:45:36;;;;;;;0.10;0.10;;;;;;;;;;5065223;28;20059;-83
2024/01/07 01:48:02;;;;;;;0.30;0.30;;;;;;;;;;5087368;28;20135;-82
2024/01/07 01:50:29;;;;;;;0.10;0.10;;;;;;;;;;5073065;28;20056;-82
2024/01/07 01:52:56;;;;;;;0.10;0.10;;;;;;;;;;5071541;28;20057;-83
2024/01/07 01:55:22;;;;;;;0.10;0.10;;;;;;;;;;5064437;28;20094;-83
2024/01/07 01:57:49;;;;;;;0.10;0.10;;;;;;;;;;5060886;28;20052;-83
2024/01/07 02:00:16;;;;;;;0.90;0.65;;;;;;;;;;5086895;28;20063;-83
2024/01/07 02:02:42;;;;;;;0.30;0.30;;;;;;;;;;5061334;28;20060;-82
2024/01/07 02:05:09;;;;;;;3.20;2.30;;;;;;;;;;5082398;28;20053;-83
2024/01/07 02:07:35;;;;;;;0.20;0.20;;;;;;;;;;5075315;28;20190;-83
2024/01/07 02:10:02;;;;;;;0.28;0.28;;;;;;;;;;5064398;28;20580;-83
2024/01/07 02:12:28;;;;;;;0.10;0.10;;;;;;;;;;5086494;28;20056;-83
2024/01/07 02:14:55;;;;;;;0.68;0.68;;;;;;;;;;5084689;28;20083;-83
2024/01/07 02:17:21;;;;;;;0.10;0.10;;;;;;;;;;5063519;28;20084;-84
2024/01/07 02:19:48;;;;;;;0.10;0.10;;;;;;;;;;5072315;28;20521;-84
2024/01/07 02:22:14;;;;;;;1.38;1.08;;;;;;;;;;5084103;28;20570;-84
2024/01/07 02:24:41;;;;;;;0.10;0.10;;;;;;;;;;5070598;28;20811;-83
2024/01/07 02:27:07;;;;;;;0.55;0.55;;;;;;;;;;5088138;28;20178;-83
2024/01/07 02:29:34;;;;;;;0.10;0.10;;;;;;;;;;5070806;28;20114;-84
2024/01/07 02:32:00;;;;;;;0.10;0.10;;;;;;;;;;5070385;28;20529;-83
2024/01/07 02:34:26;;;;;;;0.10;0.10;;;;;;;;;;5068630;28;20052;-84
2024/01/07 02:36:53;;;;;;;0.10;0.10;;;;;;;;;;5082232;28;20060;-84
2024/01/07 02:39:19;;;;;;;0.10;0.10;;;;;;;;;;5065489;28;20064;-84
2024/01/07 02:41:46;;;;;;;0.10;0.10;;;;;;;;;;5071416;28;20471;-84
2024/01/07 02:44:12;;;;;;;0.10;0.10;;;;;;;;;;5064162;28;20504;-83
2024/01/07 02:46:39;;;;;;;0.17;0.17;;;;;;;;;;5071829;28;20489;-84
2024/01/07 02:49:06;;;;;;;0.10;0.10;;;;;;;;;;5063943;28;20494;-83
2024/01/07 02:51:32;;;;;;;0.50;0.50;;;;;;;;;;5089432;28;20573;-84
2024/01/07 02:53:59;;;;;;;0.10;0.10;;;;;;;;;;5089664;28;20131;-82
2024/01/07 02:56:25;;;;;;;0.10;0.10;;;;;;;;;;5074590;28;20052;-83
2024/01/07 02:58:52;;;;;;;0.10;0.10;;;;;;;;;;5075211;28;20064;-83
2024/01/07 03:01:21;;;;;;;1.42;1.42;;;;;;;;;;5089320;28;20045;-84
2024/01/07 03:03:47;;;;;;;0.10;0.10;;;;;;;;;;5074087;28;20049;-83
2024/01/07 03:06:14;;;;;;;0.10;0.10;;;;;;;;;;5071538;28;20153;-84
2024/01/07 03:08:41;;;;;;;0.10;0.10;;;;;;;;;;5078815;28;20060;-84
2024/01/07 03:11:08;;;;;;;1.30;1.23;;;;;;;;;;5082840;28;20059;-84
2024/01/07 03:13:34;;;;;;;0.20;0.20;;;;;;;;;;5075130;28;20604;-84
2024/01/07 03:16:00;;;;;;;0.10;0.10;;;;;;;;;;5086094;28;20059;-84
2024/01/07 03:18:29;;;;;;;0.20;0.20;;;;;;;;;;5071861;28;20131;-84
2024/01/07 03:20:56;;;;;;;4.80;2.40;;;;;;;;;;5064292;28;20060;-83
2024/01/07 03:23:25;;;;;;;0.10;0.10;;;;;;;;;;5076512;28;20580;-82
2024/01/07 03:25:51;;;;;;;0.10;0.10;;;;;;;;;;5077582;28;20110;-83
2024/01/07 03:28:18;;;;;;;0.10;0.10;;;;;;;;;;5079826;28;20057;-84
2024/01/07 03:30:44;;;;;;;0.38;0.38;;;;;;;;;;5092235;28;20107;-83
2024/01/07 03:33:11;;;;;;;0.10;0.10;;;;;;;;;;5082782;28;20095;-83
2024/01/07 03:35:38;;;;;;;0.10;0.10;;;;;;;;;;5086019;28;20067;-83
2024/01/07 03:38:04;;;;;;;2.75;2.55;;;;;;;;;;5089849;28;20052;-83
2024/01/07 03:40:30;;;;;;;0.10;0.10;;;;;;;;;;5072867;28;20052;-84
2024/01/07 03:43:00;;;;;;;0.10;0.10;;;;;;;;;;5093072;28;20052;-83
2024/01/07 03:45:26;;;;;;;4.25;4.03;;;;;;;;;;5074425;28;20044;-84
2024/01/07 03:47:53;;;;;;;0.52;0.52;;;;;;;;;;5082011;28;20047;-82
2024/01/07 03:50:20;;;;;;;0.10;0.10;;;;;;;;;;5084167;28;20053;-84
2024/01/07 03:52:46;;;;;;;0.20;0.20;;;;;;;;;;5078476;28;20056;-84
2024/01/07 03:55:13;;;;;;;0.10;0.10;;;;;;;;;;5076394;28;20514;-83
2024/01/07 03:57:40;;;;;;;0.10;0.10;;;;;;;;;;5076147;28;20052;-83
2024/01/07 04:00:07;;;;;;;0.25;0.25;;;;;;;;;;5076147;28;20498;-83
2024/01/07 04:02:34;;;;;;;0.10;0.10;;;;;;;;;;5066664;28;20560;-83
2024/01/07 04:05:01;;;;;;;1.45;1.45;;;;;;;;;;5075977;28;20056;-83
2024/01/07 04:07:27;;;;;;;0.13;0.13;;;;;;;;;;5072980;28;20471;-83
2024/01/07 04:09:53;;;;;;;0.10;0.10;;;;;;;;;;5074355;28;20056;-83
2024/01/07 04:12:20;;;;;;;0.15;0.15;;;;;;;;;;5087322;28;20059;-84
2024/01/07 04:14:47;;;;;;;0.10;0.10;;;;;;;;;;5073389;28;20114;-83
2024/01/07 04:17:13;;;;;;;0.30;0.30;;;;;;;;;;5074106;28;20060;-84
2024/01/07 04:19:40;;;;;;;0.10;0.10;;;;;;;;;;5073799;28;20041;-84
2024/01/07 04:22:06;;;;;;;0.10;0.10;;;;;;;;;;5072683;28;20060;-83
2024/01/07 04:24:33;;;;;;;0.10;0.10;;;;;;;;;;5077124;28;20056;-83
2024/01/07 04:26:59;;;;;;;0.10;0.10;;;;;;;;;;5071703;28;20052;-84
2024/01/07 04:29:25;;;;;;;0.52;0.52;;;;;;;;;;5073526;28;20056;-84
2024/01/07 04:31:52;;;;;;;0.10;0.10;;;;;;;;;;5072810;28;20060;-84
2024/01/07 04:34:18;;;;;;;0.10;0.10;;;;;;;;;;5088949;28;20061;-84
2024/01/07 04:36:45;;;;;;;0.10;0.10;;;;;;;;;;5072263;28;20052;-83
2024/01/07 04:39:11;;;;;;;0.10;0.10;;;;;;;;;;5090738;28;20146;-83
2024/01/07 04:41:38;;;;;;;18.85;3.53;;;;;;;;;;5071279;28;20053;-83
2024/01/07 04:44:04;;;;;;;0.20;0.20;;;;;;;;;;5086438;28;20122;-83
2024/01/07 04:46:33;;;;;;;0.10;0.10;;;;;;;;;;5090629;28;20597;-84
2024/01/07 04:48:59;;;;;;;0.15;0.15;;;;;;;;;;5067264;28;20062;-84
2024/01/07 04:51:26;;;;;;;0.10;0.10;;;;;;;;;;5071798;28;20059;-84
2024/01/07 04:53:52;;;;;;;0.10;0.10;;;;;;;;;;5090306;28;20052;-84
2024/01/07 04:56:19;;;;;;;0.10;0.10;;;;;;;;;;5072270;28;20052;-84
2024/01/07 04:58:45;;;;;;;0.10;0.10;;;;;;;;;;5071223;28;20595;-84
2024/01/07 05:01:12;;;;;;;0.10;0.10;;;;;;;;;;5068905;28;20136;-84
2024/01/07 05:03:38;;;;;;;0.10;0.10;;;;;;;;;;5088842;28;20053;-83
2024/01/07 05:06:07;;;;;;;0.13;0.13;;;;;;;;;;5072750;28;20140;-84
2024/01/07 05:08:34;;;;;;;0.20;0.20;;;;;;;;;;5089256;28;20126;-84
2024/01/07 05:11:00;;;;;;;0.10;0.10;;;;;;;;;;5073331;28;20143;-83
2024/01/07 05:13:27;;;;;;;0.10;0.10;;;;;;;;;;5089721;28;20056;-84
2024/01/07 05:15:53;;;;;;;0.10;0.10;;;;;;;;;;5072881;28;20049;-84
2024/01/07 05:18:24;;;;;;;0.10;0.10;;;;;;;;;;5090342;28;20107;-83
2024/01/07 05:20:51;;;;;;;0.10;0.10;;;;;;;;;;5067723;28;20052;-83
2024/01/07 05:23:17;;;;;;;0.10;0.10;;;;;;;;;;5091160;28;20056;-84
2024/01/07 05:25:44;;;;;;;0.10;0.10;;;;;;;;;;5084097;28;20033;-84
2024/01/07 05:28:11;;;;;;;0.20;0.20;;;;;;;;;;5067311;28;20052;-83
2024/01/07 05:30:38;;;;;;;0.30;0.30;;;;;;;;;;5066078;28;20107;-83
2024/01/07 05:33:04;;;;;;;0.10;0.10;;;;;;;;;;5090905;28;20148;-84
2024/01/07 05:35:31;;;;;;;0.10;0.10;;;;;;;;;;5084183;28;20143;-84
2024/01/07 05:37:58;;;;;;;0.10;0.10;;;;;;;;;;5065850;28;20098;-84
2024/01/07 05:40:24;;;;;;;0.10;0.10;;;;;;;;;;5089311;28;20494;-83
2024/01/07 05:42:50;;;;;;;0.10;0.10;;;;;;;;;;5072464;28;20052;-84
2024/01/07 05:45:17;;;;;;;0.10;0.10;;;;;;;;;;5076307;28;20132;-83
2024/01/07 05:47:43;;;;;;;0.10;0.10;;;;;;;;;;5087520;28;20060;-83
2024/01/07 05:50:10;;;;;;;0.10;0.10;;;;;;;;;;5069657;28;20052;-84
2024/01/07 05:52:37;;;;;;;0.10;0.10;;;;;;;;;;5071179;28;20036;-84
2024/01/07 05:55:03;;;;;;;0.10;0.10;;;;;;;;;;5089564;28;20056;-84
2024/01/07 05:57:30;;;;;;;0.63;0.63;;;;;;;;;;5068749;28;20057;-83
2024/01/07 05:59:56;;;;;;;0.30;0.30;;;;;;;;;;5071634;28;20052;-83
2024/01/07 06:02:24;;;;;;;0.10;0.10;;;;;;;;;;5070824;28;20056;-83
2024/01/07 06:04:51;;;;;;;0.10;0.10;;;;;;;;;;5090202;28;20060;-83
2024/01/07 06:07:17;;;;;;;0.10;0.10;;;;;;;;;;5075759;28;20052;-84
2024/01/07 06:09:44;;;;;;;0.10;0.10;;;;;;;;;;5073584;28;20608;-82
2024/01/07 06:12:11;;;;;;;0.10;0.10;;;;;;;;;;5072204;28;20057;-83
2024/01/07 06:14:37;;;;;;;0.10;0.10;;;;;;;;;;5073985;28;20143;-82
2024/01/07 06:17:03;;;;;;;1.33;1.27;;;;;;;;;;5085704;28;20056;-81
2024/01/07 06:19:30;;;;;;;0.10;0.10;;;;;;;;;;5082752;28;20055;-84
2024/01/07 06:21:56;;;;;;;2.20;1.83;;;;;;;;;;5084215;28;20053;-83
2024/01/07 06:24:23;;;;;;;0.10;0.10;;;;;;;;;;5079516;28;20048;-84
2024/01/07 06:26:50;;;;;;;0.10;0.10;;;;;;;;;;5069659;28;20055;-82
2024/01/07 06:29:16;;;;;;;0.10;0.10;;;;;;;;;;5073276;28;20060;-82
2024/01/07 06:31:44;;;;;;;0.10;0.10;;;;;;;;;;5087242;28;20056;-83
2024/01/07 06:34:13;;;;;;;0.10;0.10;;;;;;;;;;5083268;28;20052;-84
2024/01/07 06:36:43;;;;;;;0.10;0.10;;;;;;;;;;5069936;28;20564;-84
2024/01/07 06:39:09;;;;;;;0.10;0.10;;;;;;;;;;5089363;28;20052;-83
2024/01/07 06:41:36;;;;;;;0.10;0.10;;;;;;;;;;5066926;28;20056;-83
2024/01/07 06:44:02;;;;;;;0.10;0.10;;;;;;;;;;5071374;28;20508;-84
2024/01/07 06:46:29;;;;;;;0.10;0.10;;;;;;;;;;5088893;28;20625;-82
2024/01/07 06:48:55;;;;;;;0.10;0.10;;;;;;;;;;5075087;28;20048;-82
2024/01/07 06:51:22;;;;;;;0.10;0.10;;;;;;;;;;5070606;28;20052;-82
2024/01/07 06:53:50;;;;;;;0.32;0.32;;;;;;;;;;5089463;28;20052;-84
2024/01/07 06:56:16;;;;;;;0.10;0.10;;;;;;;;;;5076828;28;20508;-84
2024/01/07 06:58:43;;;;;;;0.10;0.10;;;;;;;;;;5075868;28;20037;-84
2024/01/07 07:01:10;;;;;;;0.10;0.10;;;;;;;;;;5075473;28;20056;-83
2024/01/07 07:03:36;;;;;;;0.10;0.10;;;;;;;;;;5075130;28;20119;-83
2024/01/07 07:06:03;;;;;;;0.10;0.10;;;;;;;;;;5068257;28;20060;-84
2024/01/07 07:08:29;;;;;;;0.10;0.10;;;;;;;;;;5070036;28;20058;-83
2024/01/07 07:10:55;;;;;;;0.20;0.20;;;;;;;;;;5085805;28;20510;-83
2024/01/07 07:13:22;;;;;;;0.10;0.10;;;;;;;;;;5068184;28;20064;-84
2024/01/07 07:15:48;;;;;;;0.10;0.10;;;;;;;;;;5081821;28;20888;-83
2024/01/07 07:18:15;;;;;;;0.10;0.10;;;;;;;;;;5087394;28;20056;-82
2024/01/07 07:20:41;;;;;;;0.10;0.10;;;;;;;;;;5065572;28;20049;-83
2024/01/07 07:23:08;;;;;;;0.10;0.10;;;;;;;;;;5073524;28;20049;-83
2024/01/07 07:25:34;;;;;;;0.10;0.10;;;;;;;;;;5082711;28;21376;-83
2024/01/07 07:28:01;;;;;;;1.73;1.65;;;;;;;;;;5088746;28;20152;-83
2024/01/07 07:33:13;;;;;;;1.75;1.65;;;;;;;;;;5006730;28;20180;-78
2024/01/07 07:35:41;;;;;;;0.10;0.10;;;;;;;;;;5012882;28;20476;-78
2024/01/07 07:38:08;;;;;;;0.10;0.10;;;;;;;;;;5013226;28;20050;-79
2024/01/07 07:40:34;;;;;;;0.10;0.10;;;;;;;;;;5023871;28;20152;-79
2024/01/07 07:43:01;;;;;;;1.65;1.55;;;;;;;;;;5027464;28;20144;-78
2024/01/07 07:45:27;;;;;;;0.10;0.10;;;;;;;;;;5030972;28;20081;-79
2024/01/07 07:47:54;;;;;;;0.10;0.10;;;;;;;;;;5023580;28;20078;-78
2024/01/07 07:50:21;;;;;;;0.10;0.10;;;;;;;;;;5024300;28;20104;-79
2024/01/07 07:52:48;;;;;;;0.82;0.82;;;;;;;;;;5027264;28;20514;-79
2024/01/07 07:55:14;;;;;;;0.10;0.10;;;;;;;;;;5022190;28;20116;-78
2024/01/07 07:57:41;;;;;;;0.40;0.40;;;;;;;;;;5028562;28;20050;-78
2024/01/07 08:00:07;;;;;;;2.47;2.28;;;;;;;;;;5019399;28;20057;-78
2024/01/07 08:02:34;;;;;;;0.30;0.30;;;;;;;;;;5020797;28;20133;-78
2024/01/07 08:05:00;;;;;;;0.10;0.10;;;;;;;;;;5025373;28;20108;-78
2024/01/07 08:07:27;;;;;;;0.10;0.10;;;;;;;;;;5024002;28;20057;-78
2024/01/07 08:09:53;;;;;;;0.30;0.30;;;;;;;;;;5023644;28;20552;-78
2024/01/07 08:12:20;;;;;;;0.10;0.10;;;;;;;;;;5024062;28;20049;-79
2024/01/07 08:14:47;;;;;;;0.10;0.10;;;;;;;;;;5025196;28;20527;-79
2024/01/07 08:17:13;;;;;;;0.10;0.10;;;;;;;;;;5015919;28;20353;-78
2024/01/07 08:19:40;;;;;;;0.10;0.10;;;;;;;;;;5019435;28;20400;-78
2024/01/07 08:22:08;;;;;;;2.58;0.77;;;;;;;;;;5018837;28;20054;-78
2024/01/07 08:24:35;;;;;;;0.10;0.10;;;;;;;;;;5029248;28;20053;-79
2024/01/07 08:27:03;;;;;;;0.43;0.43;;;;;;;;;;5031011;28;20054;-79
2024/01/07 08:29:29;;;;;;;0.10;0.10;;;;;;;;;;5050678;28;20081;-79
2024/01/07 08:31:55;;;;;;;0.10;0.10;;;;;;;;;;5029450;28;20053;-79
2024/01/07 08:34:22;;;;;;;0.10;0.10;;;;;;;;;;5031117;28;20094;-79
2024/01/07 08:36:49;;;;;;;0.10;0.10;;;;;;;;;;5029195;28;20426;-79
2024/01/07 08:39:15;;;;;;;0.20;0.20;;;;;;;;;;5027532;28;20083;-79
2024/01/07 08:41:42;;;;;;;0.10;0.10;;;;;;;;;;5022690;28;20050;-78
2024/01/07 08:44:08;;;;;;;0.10;0.10;;;;;;;;;;5028754;28;20116;-78
2024/01/07 08:46:34;;;;;;;0.10;0.10;;;;;;;;;;5027335;28;20144;-78
2024/01/07 08:49:01;;;;;;;0.10;0.10;;;;;;;;;;5029479;28;20108;-78
2024/01/07 08:51:29;;;;;;;0.10;0.10;;;;;;;;;;5030469;28;20050;-78
2024/01/07 08:53:57;;;;;;;0.10;0.10;;;;;;;;;;5030811;28;20262;-78
2024/01/07 08:56:23;;;;;;;0.10;0.10;;;;;;;;;;5030562;28;20050;-78
2024/01/07 08:58:52;;;;;;;1.65;1.55;;;;;;;;;;5025943;28;20146;-78
2024/01/07 09:01:18;;;;;;;0.10;0.10;;;;;;;;;;5029809;28;20050;-79
2024/01/07 09:03:45;;;;;;;0.10;0.10;;;;;;;;;;5030313;28;20137;-79
2024/01/07 09:06:11;;;;;;;0.10;0.10;;;;;;;;;;5029638;28;20913;-79
2024/01/07 09:08:38;;;;;;;0.10;0.10;;;;;;;;;;5022789;28;20054;-79
2024/01/07 09:11:06;;;;;;;0.10;0.10;;;;;;;;;;5029357;28;20042;-79
2024/01/07 09:13:32;;;;;;;0.10;0.10;;;;;;;;;;5032751;28;20053;-79
2024/01/07 09:15:59;;;;;;;0.10;0.10;;;;;;;;;;5023464;28;20054;-79
2024/01/07 09:18:25;;;;;;;0.65;0.65;;;;;;;;;;5024472;28;20104;-79
2024/01/07 09:20:52;;;;;;;0.10;0.10;;;;;;;;;;5029068;28;20077;-79
2024/01/07 09:23:18;;;;;;;0.10;0.10;;;;;;;;;;5032192;28;20057;-79
2024/01/07 09:25:46;;;;;;;0.10;0.10;;;;;;;;;;5021015;28;20133;-79
2024/01/07 09:28:12;;;;;;;0.10;0.10;;;;;;;;;;5024700;28;20058;-79
2024/01/07 09:30:39;;;;;;;0.10;0.10;;;;;;;;;;5032075;28;20096;-79
2024/01/07 09:33:06;;;;;;;0.35;0.35;;;;;;;;;;5017745;28;20062;-79
2024/01/07 09:35:32;;;;;;;0.10;0.10;;;;;;;;;;5019242;28;20070;-79
2024/01/07 09:37:58;;;;;;;0.10;0.10;;;;;;;;;;5018973;28;20054;-79
2024/01/07 09:40:25;;;;;;;0.10;0.10;;;;;;;;;;5027984;28;20528;-79
2024/01/07 09:42:51;;;;;;;0.50;0.50;;;;;;;;;;5022372;28;20058;-79
2024/01/07 09:45:19;;;;;;;0.10;0.10;;;;;;;;;;5016011;28;20085;-78
2024/01/07 09:47:46;;;;;;;0.10;0.10;;;;;;;;;;5021710;28;21011;-79
2024/01/07 09:50:13;;;;;;;1.55;1.45;;;;;;;;;;5023158;28;20140;-79
2024/01/07 09:52:42;;;;;;;0.10;0.10;;;;;;;;;;5016648;28;20100;-79
2024/01/07 09:55:09;;;;;;;0.10;0.10;;;;;;;;;;5022539;28;20121;-79
2024/01/07 09:57:37;;;;;;;0.28;0.28;;;;;;;;;;5026543;28;20160;-78
2024/01/07 10:00:04;;;;;;;0.30;0.30;;;;;;;;;;5023414;28;20064;-79
2024/01/07 10:02:32;;;;;;;0.10;0.10;;;;;;;;;;5021539;28;20128;-79
2024/01/07 10:04:58;;;;;;;0.10;0.10;;;;;;;;;;5022797;28;20144;-78
2024/01/07 10:07:25;;;;;;;0.10;0.10;;;;;;;;;;5018864;28;20512;-79
2024/01/07 10:09:53;;;;;;;0.10;0.10;;;;;;;;;;5024987;28;20129;-79
2024/01/07 10:12:22;;;;;;;0.10;0.10;;;;;;;;;;5017638;28;20089;-79
2024/01/07 10:14:48;;;;;;;0.10;0.10;;;;;;;;;;5022517;28;20157;-79
2024/01/07 10:17:18;;;;;;;0.10;0.10;;;;;;;;;;5024455;28;20053;-79
2024/01/07 10:19:47;;;;;;;0.10;0.10;;;;;;;;;;5024480;28;20141;-79
2024/01/07 10:22:15;;;;;;;0.10;0.10;;;;;;;;;;5024273;28;21642;-79
2024/01/07 10:24:45;;;;;;;0.10;0.10;;;;;;;;;;5031478;28;20062;-79
2024/01/07 10:27:13;;;;;;;0.10;0.10;;;;;;;;;;5022810;28;20046;-79
2024/01/07 10:29:39;;;;;;;0.10;0.10;;;;;;;;;;5026007;28;20050;-79
2024/01/07 10:32:06;;;;;;;0.10;0.10;;;;;;;;;;5023300;28;20401;-79
2024/01/07 10:34:33;;;;;;;0.10;0.10;;;;;;;;;;5024582;28;20054;-80
2024/01/07 10:37:01;;;;;;;0.17;0.17;;;;;;;;;;5022821;28;20201;-78
2024/01/07 10:39:27;;;;;;;0.10;0.10;;;;;;;;;;5019650;28;20146;-79
2024/01/07 10:41:57;;;;;;;0.10;0.10;;;;;;;;;;5017356;28;20054;-79
2024/01/07 10:44:27;;;;;;;0.10;0.10;;;;;;;;;;5021666;28;20439;-79
2024/01/07 10:46:54;;;;;;;0.10;0.10;;;;;;;;;;5014929;28;20059;-79
2024/01/07 10:49:21;;;;;;;0.10;0.10;;;;;;;;;;5019204;28;20524;-79
2024/01/07 10:52:06;;;;;;;0.10;0.10;;;;;;;;;;5018965;28;20058;-79
2024/01/07 10:54:33;;;;;;;0.10;0.10;;;;;;;;;;5011598;28;20058;-79
2024/01/07 10:57:20;;;;;;;0.10;0.10;;;;;;;;;;5015743;28;20512;-80
2024/01/07 10:59:47;;;;;;;0.10;0.10;;;;;;;;;;5022121;28;20049;-78
2024/01/07 11:02:13;;;;;;;0.10;0.10;;;;;;;;;;5029723;28;20575;-79
2024/01/07 11:04:51;;;;;;;0.35;0.35;;;;;;;;;;5031741;28;20587;-79
2024/01/07 11:07:18;;;;;;;0.10;0.10;;;;;;;;;;5023428;28;20050;-79
2024/01/07 11:09:44;;;;;;;0.10;0.10;;;;;;;;;;5025322;28;20061;-80
2024/01/07 11:12:11;;;;;;;0.10;0.10;;;;;;;;;;5023244;28;20042;-79
2024/01/07 11:14:39;;;;;;;0.10;0.10;;;;;;;;;;5020515;28;20077;-79
2024/01/07 11:17:06;;;;;;;0.10;0.10;;;;;;;;;;5019659;28;20054;-79
2024/01/07 11:19:33;;;;;;;0.52;0.52;;;;;;;;;;5032527;28;20054;-80
2024/01/07 11:22:29;;;;;;;0.10;0.10;;;;;;;;;;5020251;28;20054;-77
2024/01/07 11:24:56;;;;;;;0.10;0.10;;;;;;;;;;5015503;28;20050;-79
2024/01/07 11:27:24;;;;;;;0.10;0.10;;;;;;;;;;5025547;28;20054;-79
2024/01/07 11:29:57;;;;;;;0.10;0.10;;;;;;;;;;5022200;28;20524;-80
2024/01/07 11:32:27;;;;;;;0.10;0.10;;;;;;;;;;5017961;28;20054;-79
2024/01/07 11:34:54;;;;;;;0.10;0.10;;;;;;;;;;5028902;28;20142;-79
2024/01/07 11:37:21;;;;;;;0.10;0.10;;;;;;;;;;5028439;28;20269;-79
2024/01/07 11:39:49;;;;;;;0.10;0.10;;;;;;;;;;5026431;28;20517;-79
2024/01/07 11:42:15;;;;;;;0.10;0.10;;;;;;;;;;5020659;28;20062;-78
2024/01/07 11:44:48;;;;;;;0.57;0.57;;;;;;;;;;5020540;28;20054;-79
2024/01/07 11:47:15;;;;;;;0.10;0.10;;;;;;;;;;5017482;28;20058;-79
2024/01/07 11:49:42;;;;;;;0.10;0.10;;;;;;;;;;5020553;28;20057;-79
2024/01/07 11:52:10;;;;;;;0.32;0.32;;;;;;;;;;5020868;28;20148;-79
2024/01/07 11:54:40;;;;;;;0.10;0.10;;;;;;;;;;5009145;28;20050;-79
2024/01/07 11:57:07;;;;;;;0.15;0.15;;;;;;;;;;5018871;28;20606;-78
2024/01/07 11:59:33;;;;;;;0.10;0.10;;;;;;;;;;5022959;28;20058;-81
2024/01/07 12:02:00;;;;;;;0.10;0.10;;;;;;;;;;5020334;28;20054;-79
2024/01/07 12:04:28;;;;;;;0.10;0.10;;;;;;;;;;5025051;28;20050;-78
2024/01/07 12:06:54;;;;;;;0.10;0.10;;;;;;;;;;5018399;28;20050;-79
2024/01/07 12:09:21;;;;;;;0.10;0.10;;;;;;;;;;5016776;28;20061;-78
2024/01/07 12:11:47;;;;;;;0.10;0.10;;;;;;;;;;5021957;28;20187;-79
2024/01/07 12:14:13;;;;;;;0.10;0.10;;;;;;;;;;5020153;28;20062;-79
2024/01/07 12:16:40;;;;;;;0.10;0.10;;;;;;;;;;5020230;28;20723;-78
2024/01/07 12:19:08;;;;;;;0.10;0.10;;;;;;;;;;5014342;28;20061;-80
2024/01/07 12:21:34;;;;;;;0.10;0.10;;;;;;;;;;5020464;28;20937;-81
2024/01/07 12:24:01;;;;;;;0.10;0.10;;;;;;;;;;5021132;28;20635;-78
2024/01/07 12:26:28;;;;;;;0.10;0.10;;;;;;;;;;5022917;28;20209;-81
2024/01/07 12:29:04;;;;;;;0.10;0.10;;;;;;;;;;5009750;28;20063;-79
2024/01/07 12:31:34;;;;;;;0.10;0.10;;;;;;;;;;5019529;28;20135;-79
2024/01/07 12:34:02;;;;;;;0.10;0.10;;;;;;;;;;5019295;28;20061;-78
2024/01/07 12:36:30;;;;;;;0.10;0.10;;;;;;;;;;5015460;28;20050;-80
2024/01/07 12:38:57;;;;;;;0.10;0.10;;;;;;;;;;5019560;28;20121;-79
2024/01/07 12:41:24;;;;;;;0.10;0.10;;;;;;;;;;5018951;28;20509;-81
2024/01/07 12:43:50;;;;;;;0.10;0.10;;;;;;;;;;5013433;28;20504;-79
2024/01/07 12:46:17;;;;;;;0.10;0.10;;;;;;;;;;5019504;28;20064;-78
2024/01/07 12:48:43;;;;;;;0.35;0.35;;;;;;;;;;5012899;28;20101;-78
2024/01/07 12:51:10;;;;;;;0.10;0.10;;;;;;;;;;5024391;28;20050;-78
2024/01/07 12:53:39;;;;;;;0.10;0.10;;;;;;;;;;5022184;28;20146;-79
2024/01/07 12:56:05;;;;;;;0.10;0.10;;;;;;;;;;5020017;28;20137;-78
2024/01/07 12:58:32;;;;;;;0.10;0.10;;;;;;;;;;5026995;28;20065;-78
2024/01/07 13:00:59;;;;;;;0.10;0.10;;;;;;;;;;5026861;28;20057;-81
2024/01/07 13:03:26;;;;;;;0.10;0.10;;;;;;;;;;5022586;28;20531;-79
2024/01/07 13:05:52;;;;;;;0.10;0.10;;;;;;;;;;5025299;28;20555;-78
2024/01/07 13:08:19;;;;;;;0.10;0.10;;;;;;;;;;5025754;28;20597;-80
2024/01/07 13:10:46;;;;;;;0.10;0.10;;;;;;;;;;5023212;28;20080;-79
2024/01/07 13:13:12;;;;;;;0.10;0.10;;;;;;;;;;5011802;28;20594;-78
2024/01/07 13:15:42;;;;;;;0.10;0.10;;;;;;;;;;5041459;28;20077;-79
2024/01/07 13:18:11;;;;;;;0.13;0.13;;;;;;;;;;5020717;28;20064;-78
2024/01/07 13:20:39;;;;;;;0.10;0.10;;;;;;;;;;5018532;28;20061;-78
2024/01/07 13:23:06;;;;;;;0.10;0.10;;;;;;;;;;5010889;28;20546;-78
2024/01/07 13:25:32;;;;;;;0.03;0.03;;;;;;;;;;5008922;28;20555;-80
2024/01/07 13:27:59;;;;;;;0.10;0.10;;;;;;;;;;5021265;28;20058;-79
2024/01/07 13:30:25;;;;;;;0.13;0.13;;;;;;;;;;5008199;28;20634;-79
2024/01/07 13:32:56;;;;;;;0.10;0.10;;;;;;;;;;5010797;28;20141;-79
2024/01/07 13:35:24;;;;;;;0.10;0.10;;;;;;;;;;5010913;28;20058;-78
2024/01/07 13:37:51;;;;;;;0.10;0.10;;;;;;;;;;5004903;28;20105;-80
2024/01/07 13:40:18;;;;;;;0.10;0.10;;;;;;;;;;5005632;28;20061;-78
2024/01/07 13:42:45;;;;;;;0.10;0.10;;;;;;;;;;5008581;28;20058;-78
2024/01/07 13:45:13;;;;;;;0.10;0.10;;;;;;;;;;5018267;28;20054;-79
2024/01/07 13:47:40;;;;;;;0.10;0.10;;;;;;;;;;5014196;28;20058;-80
2024/01/07 13:50:06;;;;;;;0.10;0.10;;;;;;;;;;5008272;28;20525;-79
2024/01/07 13:52:33;;;;;;;0.10;0.10;;;;;;;;;;5010230;28;20054;-78
2024/01/07 13:55:00;;;;;;;1.13;1.10;;;;;;;;;;5010208;28;20505;-78
2024/01/07 13:57:26;;;;;;;0.10;0.10;;;;;;;;;;5024498;28;20112;-80
2024/01/07 13:59:53;;;;;;;0.10;0.10;;;;;;;;;;5010701;28;20539;-78
2024/01/07 14:02:19;;;;;;;0.10;0.10;;;;;;;;;;5015327;28;20898;-79
2024/01/07 14:04:46;;;;;;;0.10;0.10;;;;;;;;;;5008397;28;20527;-78
2024/01/07 14:07:12;;;;;;;0.10;0.10;;;;;;;;;;5015258;28;20056;-78
2024/01/07 14:09:39;;;;;;;0.10;0.10;;;;;;;;;;5023484;28;20050;-79
2024/01/07 14:12:09;;;;;;;0.10;0.10;;;;;;;;;;5008367;28;20065;-78
2024/01/07 14:14:35;;;;;;;0.10;0.10;;;;;;;;;;5008473;28;20054;-81
2024/01/07 14:17:01;;;;;;;0.10;0.10;;;;;;;;;;5018707;28;20054;-81
2024/01/07 14:19:28;;;;;;;0.10;0.10;;;;;;;;;;5019623;28;20051;-80
2024/01/07 14:21:54;;;;;;;0.10;0.10;;;;;;;;;;5010328;28;20050;-79
2024/01/07 14:24:21;;;;;;;0.10;0.10;;;;;;;;;;5008362;28;20087;-78
2024/01/07 14:26:47;;;;;;;0.10;0.10;;;;;;;;;;5015882;28;20062;-78
2024/01/07 14:29:14;;;;;;;0.10;0.10;;;;;;;;;;5012792;28;20054;-78
2024/01/07 14:31:44;;;;;;;0.10;0.10;;;;;;;;;;5008619;28;20054;-79
2024/01/07 14:34:11;;;;;;;0.10;0.10;;;;;;;;;;5008469;28;20150;-79
2024/01/07 14:36:43;;;;;;;0.10;0.10;;;;;;;;;;5011534;28;20058;-79
2024/01/07 14:39:10;;;;;;;0.10;0.10;;;;;;;;;;5013571;28;20478;-78
2024/01/07 14:41:37;;;;;;;0.10;0.10;;;;;;;;;;5013721;28;20145;-80
2024/01/07 14:44:03;;;;;;;0.10;0.10;;;;;;;;;;5008975;28;20054;-79
2024/01/07 14:46:36;;;;;;;0.10;0.10;;;;;;;;;;5008870;28;20194;-79
2024/01/07 14:49:04;;;;;;;0.77;0.77;;;;;;;;;;5013418;28;20058;-79